Time;durP1;ratioP1;P1;durP2;ratioP2;P2;SDS_P1;SDS_P2;PMS_P1;PMS_P2;Temp;Humidity;BMP_temperature;BMP_pressure;BME280_temperature;BME280_humidity;BME280_pressure;Samples;Min_cycle;Max_cycle;Signal;HPM_P1;HPM_P2
2020/12/13 00:00:58;;;;;;;;;;;;;;;20.72;36.06;100376.13;5035090;28;2338;-58
2020/12/13 00:03:23;;;;;;;;;;;;;;;20.71;36.05;100383.75;5035192;28;908;-58
2020/12/13 00:05:49;;;;;;;;;;;;;;;20.72;36.01;100388.13;5035068;28;2202;-57
2020/12/13 00:08:14;;;;;;;;;;;;;;;20.71;36.02;100380.97;5034706;28;825;-58
2020/12/13 00:10:39;;;;;;;;;;;;;;;20.72;36.08;100390.16;5035575;28;2045;-58
2020/12/13 00:13:05;;;;;;;;;;;;;;;20.72;36.01;100390.94;5035079;28;1073;-58
2020/12/13 00:15:30;;;;;;;;;;;;;;;20.72;35.97;100384.56;5035625;28;1364;-58
2020/12/13 00:17:55;;;;;;;;;;;;;;;20.73;36.09;100389.75;5054940;28;967;-58
2020/12/13 00:20:21;;;;;;;;;;;;;;;20.73;36.16;100381.31;5054913;28;2350;-59
2020/12/13 00:22:47;;;;;;;;;;;;;;;20.73;35.86;100386.13;5035279;28;2557;-56
2020/12/13 00:25:12;;;;;;;;;;;;;;;20.73;36.06;100392.53;5040969;28;2183;-58
2020/12/13 00:27:38;;;;;;;;;;;;;;;20.74;36.05;100390.53;5034555;28;1352;-58
2020/12/13 00:30:05;;;;;;;;;;;;;;;20.73;36.11;100395.34;5033773;28;2234;-57
2020/12/13 00:32:31;;;;;;;;;;;;;;;20.74;36.10;100408.13;5034845;28;888;-58
2020/12/13 00:34:57;;;;;;;;;;;;;;;20.74;36.06;100407.34;5036064;28;2254;-58
2020/12/13 00:37:24;;;;;;;;;;;;;;;20.73;36.08;100405.75;5035846;28;2496;-56
2020/12/13 00:39:49;;;;;;;;;;;;;;;20.73;36.04;100403.75;5045415;28;1945;-58
2020/12/13 00:42:15;;;;;;;;;;;;;;;20.73;36.06;100409.38;5040682;28;2013;-58
2020/12/13 00:44:40;;;;;;;;;;;;;;;20.74;35.98;100410.16;5034130;28;2119;-59
2020/12/13 00:47:05;;;;;;;;;;;;;;;20.73;36.04;100409.38;5037649;28;2003;-58
2020/12/13 00:49:31;;;;;;;;;;;;;;;20.74;36.03;100422.16;5037276;28;2238;-58
2020/12/13 00:52:01;;;;;;;;;;;;;;;20.74;36.08;100424.97;5047802;28;2064;-58
2020/12/13 00:54:26;;;;;;;;;;;;;;;20.74;36.01;100416.56;5052168;28;2000;-57
2020/12/13 00:56:51;;;;;;;;;;;;;;;20.74;36.03;100424.97;5040275;28;2139;-58
2020/12/13 00:59:16;;;;;;;;;;;;;;;20.75;36.12;100422.97;5038389;28;878;-58
2020/12/13 01:01:42;;;;;;;;;;;;;;;20.75;36.03;100432.19;5040671;28;2270;-57
2020/12/13 01:04:07;;;;;;;;;;;;;;;20.74;36.15;100430.59;5051724;28;2281;-58
2020/12/13 01:06:32;;;;;;;;;;;;;;;20.74;36.11;100432.59;5044177;28;2201;-58
2020/12/13 01:08:58;;;;;;;;;;;;;;;20.75;36.11;100440.59;5058566;28;1960;-57
2020/12/13 01:11:28;;;;;;;;;;;;;;;20.75;36.05;100445.44;5056927;28;2016;-57
2020/12/13 01:13:54;;;;;;;;;;;;;;;20.75;35.95;100445.44;5038231;28;984;-58
2020/12/13 01:16:20;;;;;;;;;;;;;;;20.74;36.16;100444.59;5036832;28;2258;-56
2020/12/13 01:18:45;;;;;;;;;;;;;;;20.75;36.12;100451.81;5037731;28;2249;-58
2020/12/13 01:21:19;;;;;;;;;;;;;;;20.75;36.00;100457.44;5038319;28;907;-58
2020/12/13 01:23:44;;;;;;;;;;;;;;;20.76;36.05;100455.41;5037527;28;2081;-58
2020/12/13 01:26:11;;;;;;;;;;;;;;;20.76;36.09;100456.19;5047598;28;2145;-57
2020/12/13 01:28:37;;;;;;;;;;;;;;;20.76;36.11;100466.63;5057879;28;1910;-58
2020/12/13 01:31:02;;;;;;;;;;;;;;;20.75;36.03;100463.03;5046838;28;2255;-58
2020/12/13 01:33:28;;;;;;;;;;;;;;;20.76;36.19;100472.25;5039824;28;2179;-57
2020/12/13 01:35:53;;;;;;;;;;;;;;;20.76;36.07;100473.03;5036939;28;2247;-58
2020/12/13 01:38:18;;;;;;;;;;;;;;;20.76;35.99;100478.63;5038160;28;885;-58
2020/12/13 01:40:43;;;;;;;;;;;;;;;20.76;36.18;100478.63;5036841;28;2246;-57
2020/12/13 01:43:09;;;;;;;;;;;;;;;20.75;36.00;100471.47;5037568;28;923;-57
2020/12/13 01:45:34;;;;;;;;;;;;;;;20.76;36.04;100475.03;5037138;28;2234;-56
2020/12/13 01:48:00;;;;;;;;;;;;;;;20.77;36.09;100476.66;5037497;28;933;-58
2020/12/13 01:50:42;;;;;;;;;;;;;;;20.76;36.14;100470.22;5036818;28;1958;-57
2020/12/13 01:53:23;;;;;;;;;;;;;;;20.77;35.99;100473.84;5055763;28;1793;-58
2020/12/13 01:55:49;;;;;;;;;;;;;;;20.76;36.01;100475.84;5053887;28;2147;-56
2020/12/13 01:58:36;;;;;;;;;;;;;;;20.76;36.09;100483.47;5037661;28;856;-58
2020/12/13 02:01:04;;;;;;;;;;;;;;;20.76;36.08;100489.84;5038312;28;2355;-58
2020/12/13 02:03:53;;;;;;;;;;;;;;;20.77;36.09;100490.69;5037333;28;2080;-58
2020/12/13 02:06:24;;;;;;;;;;;;;;;20.75;36.05;100488.28;5036467;28;2180;-58
2020/12/13 02:08:52;;;;;;;;;;;;;;;20.76;36.10;100487.06;5036995;28;2076;-58
2020/12/13 02:11:19;;;;;;;;;;;;;;;20.77;36.02;100485.06;5047508;28;1958;-58
2020/12/13 02:13:48;;;;;;;;;;;;;;;20.76;36.07;100492.66;5036772;28;2120;-59
2020/12/13 02:16:14;;;;;;;;;;;;;;;20.77;36.14;100499.09;5036910;28;1290;-58
2020/12/13 02:18:41;;;;;;;;;;;;;;;20.76;36.11;100498.28;5036470;28;2194;-57
2020/12/13 02:21:10;;;;;;;;;;;;;;;20.77;36.06;100502.69;5038306;28;2204;-58
2020/12/13 02:23:37;;;;;;;;;;;;;;;20.76;36.12;100494.69;5040498;28;2018;-58
2020/12/13 02:26:02;;;;;;;;;;;;;;;20.77;35.99;100507.50;5056305;28;1712;-60
2020/12/13 02:28:28;;;;;;;;;;;;;;;20.77;36.08;100502.69;5056546;28;1961;-58
2020/12/13 02:30:53;;;;;;;;;;;;;;;20.77;36.15;100513.13;5042140;28;2267;-58
2020/12/13 02:33:18;;;;;;;;;;;;;;;20.77;36.09;100513.91;5037173;28;899;-59
2020/12/13 02:35:44;;;;;;;;;;;;;;;20.77;36.06;100513.13;5035721;28;2208;-58
2020/12/13 02:38:09;;;;;;;;;;;;;;;20.77;35.93;100519.50;5034541;28;1934;-57
2020/12/13 02:40:34;;;;;;;;;;;;;;;20.78;35.96;100520.28;5036587;28;896;-58
2020/12/13 02:43:00;;;;;;;;;;;;;;;20.78;36.02;100511.88;5050441;28;2167;-56
2020/12/13 02:45:25;;;;;;;;;;;;;;;20.78;36.26;100520.28;5037820;28;2276;-58
2020/12/13 02:47:50;;;;;;;;;;;;;;;20.77;36.15;100513.91;5036324;28;1907;-58
2020/12/13 02:50:16;;;;;;;;;;;;;;;20.78;36.15;100517.50;5036110;28;1895;-56
2020/12/13 02:52:41;;;;;;;;;;;;;;;20.77;36.07;100522.31;5035779;28;2222;-57
2020/12/13 02:55:06;;;;;;;;;;;;;;;20.78;36.09;100520.28;5035706;28;2166;-58
2020/12/13 02:57:31;;;;;;;;;;;;;;;20.77;36.07;100519.50;5053209;28;2210;-58
2020/12/13 02:59:57;;;;;;;;;;;;;;;20.78;36.03;100526.72;5050877;28;2378;-58
2020/12/13 03:02:22;;;;;;;;;;;;;;;20.78;36.07;100523.09;5038143;28;2194;-58
2020/12/13 03:04:47;;;;;;;;;;;;;;;20.78;36.07;100525.91;5056119;28;884;-58
2020/12/13 03:07:13;;;;;;;;;;;;;;;20.79;36.05;100535.94;5054707;28;1674;-58
2020/12/13 03:09:38;;;;;;;;;;;;;;;20.79;36.09;100533.13;5047495;28;2245;-58
2020/12/13 03:12:04;;;;;;;;;;;;;;;20.79;36.16;100535.94;5035990;28;2148;-58
2020/12/13 03:14:31;;;;;;;;;;;;;;;20.78;36.17;100535.16;5035939;28;2134;-58
2020/12/13 03:16:57;;;;;;;;;;;;;;;20.78;36.14;100535.16;5036191;28;1909;-58
2020/12/13 03:19:22;;;;;;;;;;;;;;;20.78;36.14;100531.53;5035709;28;856;-58
2020/12/13 03:21:48;;;;;;;;;;;;;;;20.79;36.31;100538.72;5035478;28;2286;-58
2020/12/13 03:24:13;;;;;;;;;;;;;;;20.78;36.14;100537.94;5035068;28;2269;-58
2020/12/13 03:26:38;;;;;;;;;;;;;;;20.78;36.03;100540.75;5035131;28;2277;-57
2020/12/13 03:29:04;;;;;;;;;;;;;;;20.79;36.17;100541.53;5035405;28;1890;-58
2020/12/13 03:31:29;;;;;;;;;;;;;;;20.79;36.16;100545.13;5035600;28;2041;-56
2020/12/13 03:33:54;;;;;;;;;;;;;;;20.79;36.18;100544.34;5035235;28;2219;-57
2020/12/13 03:36:20;;;;;;;;;;;;;;;20.78;36.15;100549.16;5034692;28;1820;-58
2020/12/13 03:38:45;;;;;;;;;;;;;;;20.78;36.18;100551.97;5035076;28;2278;-58
2020/12/13 03:41:10;;;;;;;;;;;;;;;20.79;36.17;100561.97;5034959;28;2237;-58
2020/12/13 03:43:36;;;;;;;;;;;;;;;20.78;36.21;100551.97;5035871;28;862;-58
2020/12/13 03:46:01;;;;;;;;;;;;;;;20.78;36.07;100559.56;5048308;28;2207;-56
2020/12/13 03:48:26;;;;;;;;;;;;;;;20.79;36.00;100552.75;5052984;28;2131;-56
2020/12/13 03:50:51;;;;;;;;;;;;;;;20.79;36.12;100552.75;5035511;28;2152;-57
2020/12/13 03:53:17;;;;;;;;;;;;;;;20.78;36.16;100551.16;5035177;28;2270;-58
2020/12/13 03:55:42;;;;;;;;;;;;;;;20.79;36.10;100549.94;5034982;28;1418;-58
2020/12/13 03:58:08;;;;;;;;;;;;;;;20.79;36.17;100555.56;5038644;28;2176;-59
2020/12/13 04:00:34;;;;;;;;;;;;;;;20.79;36.10;100561.97;5036966;28;1897;-58
2020/12/13 04:03:02;;;;;;;;;;;;;;;20.79;36.09;100567.56;5034868;28;825;-58
2020/12/13 04:05:28;;;;;;;;;;;;;;;20.79;36.20;100563.97;5046971;28;2235;-57
2020/12/13 04:07:53;;;;;;;;;;;;;;;20.78;36.08;100566.00;5046199;28;2229;-58
2020/12/13 04:10:20;;;;;;;;;;;;;;;20.79;36.07;100576.00;5049697;28;2223;-58
2020/12/13 04:12:46;;;;;;;;;;;;;;;20.79;36.05;100576.00;5053405;28;1987;-58
2020/12/13 04:15:12;;;;;;;;;;;;;;;20.80;36.07;100579.63;5040661;28;2049;-58
2020/12/13 04:17:37;;;;;;;;;;;;;;;20.80;36.10;100585.22;5035310;28;1343;-58
2020/12/13 04:20:05;;;;;;;;;;;;;;;20.79;36.09;100580.81;5034420;28;2223;-58
2020/12/13 04:22:30;;;;;;;;;;;;;;;20.80;36.12;100582.41;5034878;28;2230;-58
2020/12/13 04:24:55;;;;;;;;;;;;;;;20.80;36.19;100579.63;5040437;28;2516;-58
2020/12/13 04:27:21;;;;;;;;;;;;;;;20.80;36.08;100588.03;5041494;28;1605;-58
2020/12/13 04:29:46;;;;;;;;;;;;;;;20.79;36.09;100590.03;5040894;28;2381;-58
2020/12/13 04:32:11;;;;;;;;;;;;;;;20.79;36.06;100594.84;5037918;28;2270;-57
2020/12/13 04:34:37;;;;;;;;;;;;;;;20.80;36.21;100596.44;5037922;28;2339;-58
2020/12/13 04:37:02;;;;;;;;;;;;;;;20.80;36.17;100596.44;5041076;28;1243;-57
2020/12/13 04:39:28;;;;;;;;;;;;;;;20.79;36.10;100601.25;5041188;28;2239;-58
2020/12/13 04:41:53;;;;;;;;;;;;;;;20.80;36.09;100608.47;5041170;28;1994;-57
2020/12/13 04:44:19;;;;;;;;;;;;;;;20.79;36.08;100609.66;5041409;28;1043;-58
2020/12/13 04:46:45;;;;;;;;;;;;;;;20.80;36.19;100607.66;5040767;28;1888;-58
2020/12/13 04:49:11;;;;;;;;;;;;;;;20.81;36.27;100614.84;5040973;28;2189;-56
2020/12/13 04:51:40;;;;;;;;;;;;;;;20.80;36.28;100605.66;5048552;28;2133;-58
2020/12/13 04:54:06;;;;;;;;;;;;;;;20.80;36.16;100611.25;5046381;28;2201;-57
2020/12/13 04:56:36;;;;;;;;;;;;;;;20.80;36.17;100618.88;5040878;28;1351;-58
2020/12/13 04:59:03;;;;;;;;;;;;;;;20.81;36.13;100626.06;5039621;28;2327;-57
2020/12/13 05:01:29;;;;;;;;;;;;;;;20.80;36.22;100619.69;5059954;28;2158;-58
2020/12/13 05:03:55;;;;;;;;;;;;;;;20.80;36.19;100622.47;5060024;28;2194;-58
2020/12/13 05:06:21;;;;;;;;;;;;;;;20.80;36.14;100628.09;5060658;28;1353;-58
2020/12/13 05:08:47;;;;;;;;;;;;;;;20.80;36.12;100624.50;5056782;28;2100;-58
2020/12/13 05:11:14;;;;;;;;;;;;;;;20.80;36.19;100621.69;5043836;28;2030;-56
2020/12/13 05:13:39;;;;;;;;;;;;;;;20.81;36.04;100628.88;5060696;28;1088;-58
2020/12/13 05:16:09;;;;;;;;;;;;;;;20.81;36.15;100635.28;5059300;28;1865;-58
2020/12/13 05:18:41;;;;;;;;;;;;;;;20.81;36.14;100635.28;5052024;28;2233;-56
2020/12/13 05:21:07;;;;;;;;;;;;;;;20.81;36.21;100631.69;5040847;28;1966;-58
2020/12/13 05:23:33;;;;;;;;;;;;;;;20.80;36.09;100635.72;5044653;28;2177;-58
2020/12/13 05:25:59;;;;;;;;;;;;;;;20.80;36.21;100642.13;5060512;28;1264;-58
2020/12/13 05:28:25;;;;;;;;;;;;;;;20.81;36.13;100643.69;5047958;28;1673;-58
2020/12/13 05:30:51;;;;;;;;;;;;;;;20.81;36.21;100643.69;5040191;28;2219;-56
2020/12/13 05:33:30;;;;;;;;;;;;;;;20.81;36.31;100649.31;5040617;28;952;-58
2020/12/13 05:36:04;;;;;;;;;;;;;;;20.80;36.22;100639.31;5036633;28;2097;-58
2020/12/13 05:38:34;;;;;;;;;;;;;;;20.81;36.23;100643.69;5037878;28;879;-56
2020/12/13 05:41:00;;;;;;;;;;;;;;;20.81;36.22;100648.53;5037056;28;2274;-58
2020/12/13 05:43:30;;;;;;;;;;;;;;;20.81;36.16;100642.91;5038038;28;996;-56
2020/12/13 05:48:36;;;;;;;;;;;;;;;20.81;36.20;100640.09;5058228;28;901;-58
2020/12/13 05:53:29;;;;;;;;;;;;;;;20.81;36.05;100654.13;5036936;28;2234;-58
2020/12/13 05:55:56;;;;;;;;;;;;;;;20.81;36.08;100649.31;5037330;28;1269;-57
2020/12/13 05:58:26;;;;;;;;;;;;;;;20.81;36.12;100652.13;5037112;28;2205;-56
2020/12/13 06:00:52;;;;;;;;;;;;;;;20.81;36.20;100654.91;5036710;28;2221;-58
2020/12/13 06:03:31;;;;;;;;;;;;;;;20.81;36.15;100656.94;5037356;28;825;-56
2020/12/13 06:06:03;;;;;;;;;;;;;;;20.81;36.19;100657.72;5054370;28;2278;-58
2020/12/13 06:08:39;;;;;;;;;;;;;;;20.81;36.28;100660.53;5057096;28;1034;-58
2020/12/13 06:11:06;;;;;;;;;;;;;;;20.81;36.15;100666.13;5038011;28;1842;-58
2020/12/13 06:13:37;;;;;;;;;;;;;;;20.81;36.20;100668.94;5036685;28;2194;-58
2020/12/13 06:16:03;;;;;;;;;;;;;;;20.82;36.26;100675.38;5043589;28;2479;-56
2020/12/13 06:18:28;;;;;;;;;;;;;;;20.82;36.19;100678.19;5037118;28;1040;-56
2020/12/13 06:21:01;;;;;;;;;;;;;;;20.81;36.25;100677.38;5050777;28;2238;-58
2020/12/13 06:23:31;;;;;;;;;;;;;;;20.82;36.09;100675.38;5037449;28;2293;-58
2020/12/13 06:25:56;;;;;;;;;;;;;;;20.82;36.19;100683.78;5056603;28;1292;-58
2020/12/13 06:28:22;;;;;;;;;;;;;;;20.82;36.20;100695.00;5046306;28;2269;-55
2020/12/13 06:30:48;;;;;;;;;;;;;;;20.81;36.16;100691.41;5035918;28;2285;-60
2020/12/13 06:33:13;;;;;;;;;;;;;;;20.82;36.12;100707.03;5030259;28;2256;-58
2020/12/13 06:35:41;;;;;;;;;;;;;;;20.82;36.14;100704.22;5032799;28;2210;-57
2020/12/13 06:38:17;;;;;;;;;;;;;;;20.82;36.12;100707.03;5036337;28;873;-57
2020/12/13 06:40:43;;;;;;;;;;;;;;;20.82;36.11;100715.44;5040916;28;2330;-58
2020/12/13 06:43:09;;;;;;;;;;;;;;;20.82;36.06;100709.81;5056645;28;799;-58
2020/12/13 06:45:34;;;;;;;;;;;;;;;20.83;36.12;100724.66;5049530;28;1942;-59
2020/12/13 06:47:59;;;;;;;;;;;;;;;20.82;36.14;100715.44;5035701;28;1615;-58
2020/12/13 06:50:25;;;;;;;;;;;;;;;20.82;36.18;100718.25;5035664;28;2073;-58
2020/12/13 06:52:52;;;;;;;;;;;;;;;20.82;36.17;100723.84;5037194;28;1818;-58
2020/12/13 06:55:29;;;;;;;;;;;;;;;20.82;36.25;100731.50;5035631;28;1974;-56
2020/12/13 06:57:55;;;;;;;;;;;;;;;20.82;36.19;100735.09;5036279;28;1368;-58
2020/12/13 07:00:20;;;;;;;;;;;;;;;20.81;36.15;100733.47;5035235;28;2026;-58
2020/12/13 07:03:00;;;;;;;;;;;;;;;20.82;36.14;100740.69;5035770;28;2203;-58
2020/12/13 07:05:45;;;;;;;;;;;;;;;20.82;36.13;100743.50;5036033;28;952;-58
2020/12/13 07:08:14;;;;;;;;;;;;;;;20.82;36.25;100754.72;5047898;28;1803;-57
2020/12/13 07:10:46;;;;;;;;;;;;;;;20.82;36.26;100746.31;5054478;28;2238;-58
2020/12/13 07:13:18;;;;;;;;;;;;;;;20.82;36.08;100751.91;5036256;28;845;-58
2020/12/13 07:15:53;;;;;;;;;;;;;;;20.82;36.26;100754.72;5034385;28;2301;-59
2020/12/13 07:18:21;;;;;;;;;;;;;;;20.82;36.20;100760.34;5035620;28;2010;-55
2020/12/13 07:20:46;;;;;;;;;;;;;;;20.83;36.22;100763.94;5035539;28;2692;-56
2020/12/13 07:23:12;;;;;;;;;;;;;;;20.83;36.26;100766.72;5035707;28;2146;-57
2020/12/13 07:25:38;;;;;;;;;;;;;;;20.84;36.27;100765.53;5035672;28;1263;-58
2020/12/13 07:28:04;;;;;;;;;;;;;;;20.83;36.25;100775.97;5035595;28;1937;-58
2020/12/13 07:30:29;;;;;;;;;;;;;;;20.83;36.13;100777.97;5034996;28;2211;-58
2020/12/13 07:32:57;;;;;;;;;;;;;;;20.84;36.11;100782.38;5035418;28;911;-58
2020/12/13 07:35:23;;;;;;;;;;;;;;;20.84;36.21;100785.19;5035021;28;2312;-57
2020/12/13 07:37:51;;;;;;;;;;;;;;;20.83;36.27;100780.75;5035384;28;1757;-58
2020/12/13 07:40:16;;;;;;;;;;;;;;;20.83;36.19;100795.59;5035724;28;1000;-56
2020/12/13 07:42:58;;;;;;;;;;;;;;;20.83;36.14;100792.81;5035123;28;2096;-58
2020/12/13 07:45:23;;;;;;;;;;;;;;;20.83;36.36;100792.81;5055281;28;853;-58
2020/12/13 07:47:50;;;;;;;;;;;;;;;20.82;36.27;100796.81;5041202;28;1858;-57
2020/12/13 07:50:16;;;;;;;;;;;;;;;20.85;36.24;100796.00;5047401;28;2193;-58
2020/12/13 07:52:44;;;;;;;;;;;;;;;20.84;36.28;100802.78;5037027;28;2727;-58
2020/12/13 07:55:10;;;;;;;;;;;;;;;20.84;36.29;100800.00;5034987;28;1986;-58
2020/12/13 07:57:36;;;;;;;;;;;;;;;20.83;36.30;100792.81;5043522;28;1717;-57
2020/12/13 08:00:08;;;;;;;;;;;;;;;20.83;36.12;100798.41;5055010;28;855;-58
2020/12/13 08:02:34;;;;;;;;;;;;;;;20.84;36.23;100810.44;5054036;28;2253;-57
2020/12/13 08:04:59;;;;;;;;;;;;;;;20.84;36.14;100805.59;5035148;28;2116;-58
2020/12/13 08:07:24;;;;;;;;;;;;;;;20.85;36.33;100820.44;5034755;28;2373;-58
2020/12/13 08:09:57;;;;;;;;;;;;;;;20.84;36.20;100827.25;5034847;28;1898;-57
2020/12/13 08:12:29;;;;;;;;;;;;;;;20.84;36.19;100822.44;5034987;28;2244;-58
2020/12/13 08:14:54;;;;;;;;;;;;;;;20.84;36.21;100827.25;5034524;28;2354;-57
2020/12/13 08:17:19;;;;;;;;;;;;;;;20.84;36.14;100825.25;5041041;28;1901;-58
2020/12/13 08:19:48;;;;;;;;;;;;;;;20.83;36.32;100829.28;5055166;28;924;-55
2020/12/13 08:22:26;;;;;;;;;;;;;;;20.84;36.26;100835.69;5041422;28;2162;-56
2020/12/13 08:24:53;;;;;;;;;;;;;;;20.84;36.21;100835.69;5043543;28;2213;-57
2020/12/13 08:27:19;;;;;;;;;;;;;;;20.84;36.19;100844.88;5040696;28;1873;-57
2020/12/13 08:29:45;;;;;;;;;;;;;;;20.85;36.13;100851.31;5034955;28;1953;-58
2020/12/13 08:32:12;;;;;;;;;;;;;;;20.85;36.26;100854.13;5034302;28;2206;-58
2020/12/13 08:34:38;;;;;;;;;;;;;;;20.84;36.18;100850.50;5032241;28;2506;-59
2020/12/13 08:37:03;;;;;;;;;;;;;;;20.84;36.21;100856.09;5027666;28;2234;-57
2020/12/13 08:39:34;;;;;;;;;;;;;;;20.84;36.17;100860.94;5050787;28;2053;-58
2020/12/13 08:42:01;;;;;;;;;;;;;;;20.85;36.31;100860.53;5044558;28;2215;-58
2020/12/13 08:44:33;;;;;;;;;;;;;;;20.85;36.22;100874.56;5034225;28;2194;-58
2020/12/13 08:47:01;;;;;;;;;;;;;;;20.85;36.28;100873.75;5034099;28;1906;-57
2020/12/13 08:49:29;;;;;;;;;;;;;;;20.85;36.20;100876.56;5034996;28;1910;-56
2020/12/13 08:51:54;;;;;;;;;;;;;;;20.84;36.24;100878.56;5036402;28;1926;-58
2020/12/13 08:54:20;;;;;;;;;;;;;;;20.85;36.20;100870.97;5034627;28;2255;-57
2020/12/13 08:56:52;;;;;;;;;;;;;;;20.85;36.27;100870.97;5034095;28;1817;-55
2020/12/13 08:59:21;;;;;;;;;;;;;;;20.85;36.20;100876.56;5047180;28;2307;-57
2020/12/13 09:01:58;;;;;;;;;;;;;;;20.85;36.19;100882.97;5044569;28;1980;-57
2020/12/13 09:04:25;;;;;;;;;;;;;;;20.85;36.26;100874.56;5032261;28;1935;-58
2020/12/13 09:06:58;;;;;;;;;;;;;;;20.85;36.26;100876.56;5052972;28;2238;-58
2020/12/13 09:09:31;;;;;;;;;;;;;;;20.85;36.26;100880.16;5042555;28;2196;-56
2020/12/13 09:11:58;;;;;;;;;;;;;;;20.85;36.26;100885.78;5037739;28;2352;-58
2020/12/13 09:14:28;;;;;;;;;;;;;;;20.85;36.31;100891.38;5037855;28;2193;-60
2020/12/13 09:16:54;;;;;;;;;;;;;;;20.85;36.35;100897.00;5037499;28;1817;-56
2020/12/13 09:19:19;;;;;;;;;;;;;;;20.83;36.35;100902.22;5037895;28;788;-58
2020/12/13 09:21:53;;;;;;;;;;;;;;;20.82;36.35;100905.44;5045078;28;2250;-58
2020/12/13 09:24:21;;;;;;;;;;;;;;;20.81;36.52;100903.84;5048001;28;2325;-57
2020/12/13 09:27:06;;;;;;;;;;;;;;;20.80;36.34;100908.66;5037375;28;2144;-58
2020/12/13 09:29:34;;;;;;;;;;;;;;;20.82;36.46;100911.06;5037954;28;1894;-58
2020/12/13 09:32:00;;;;;;;;;;;;;;;20.77;36.24;100909.47;5037848;28;2234;-58
2020/12/13 09:34:25;;;;;;;;;;;;;;;20.63;34.26;100918.00;5039749;28;2034;-57
2020/12/13 09:36:51;;;;;;;;;;;;;;;20.60;35.01;100907.56;5038960;28;2198;-57
2020/12/13 09:39:16;;;;;;;;;;;;;;;20.63;35.37;100910.38;5057647;28;877;-58
2020/12/13 09:41:42;;;;;;;;;;;;;;;20.67;35.48;100913.16;5048925;28;2178;-57
2020/12/13 09:44:08;;;;;;;;;;;;;;;20.70;35.81;100915.16;5036990;28;2262;-57
2020/12/13 09:46:33;;;;;;;;;;;;;;;;;;5054062;28;2357;-57
2020/12/13 09:48:58;;;;;;;;;;;;;;;20.70;35.78;100920.75;5057516;28;1898;-55
2020/12/13 09:51:23;;;;;;;;;;;;;;;20.72;35.71;100917.56;5040386;28;2197;-57
2020/12/13 09:53:49;;;;;;;;;;;;;;;20.72;35.80;100929.56;5041163;28;2211;-57
2020/12/13 09:56:18;;;;;;;;;;;;;;;20.73;35.98;100930.34;5054412;28;2071;-56
2020/12/13 09:58:45;;;;;;;;;;;;;;;20.73;35.90;100936.78;5055179;28;2318;-57
2020/12/13 10:01:11;;;;;;;;;;;;;;;20.75;36.04;100930.75;5040318;28;1910;-57
2020/12/13 10:03:38;;;;;;;;;;;;;;;20.75;36.20;100933.56;5047534;28;2257;-57
2020/12/13 10:06:19;;;;;;;;;;;;;;;20.75;36.11;100922.34;5040474;28;1854;-55
2020/12/13 10:09:00;;;;;;;;;;;;;;;20.74;36.13;100921.53;5056823;28;1906;-57
2020/12/13 10:11:28;;;;;;;;;;;;;;;20.76;36.17;100929.53;5039605;28;2195;-57
2020/12/13 10:13:53;;;;;;;;;;;;;;;20.75;36.31;100927.94;5037231;28;828;-57
2020/12/13 10:16:19;;;;;;;;;;;;;;;20.75;36.26;100931.56;5036186;28;1632;-60
2020/12/13 10:18:44;;;;;;;;;;;;;;;20.75;36.26;100928.75;5036774;28;1731;-58
2020/12/13 10:21:09;;;;;;;;;;;;;;;20.75;36.19;100922.34;5036040;28;1047;-58
2020/12/13 10:23:35;;;;;;;;;;;;;;;20.66;35.35;100926.41;5036666;28;813;-56
2020/12/13 10:26:00;;;;;;;;;;;;;;;20.55;35.01;100922.81;5036706;28;1362;-57
2020/12/13 10:28:25;;;;;;;;;;;;;;;20.49;34.99;100921.69;5036927;28;837;-57
2020/12/13 10:30:51;;;;;;;;;;;;;;;20.48;35.19;100920.06;5036533;28;1906;-55
2020/12/13 10:33:17;;;;;;;;;;;;;;;20.56;35.42;100927.25;5036398;28;983;-56
2020/12/13 10:35:43;;;;;;;;;;;;;;;20.55;35.05;100931.25;5036136;28;1299;-56
2020/12/13 10:38:10;;;;;;;;;;;;;;;20.45;34.24;100927.31;5036417;28;833;-56
2020/12/13 10:40:35;;;;;;;;;;;;;;;20.48;34.97;100932.06;5036471;28;873;-57
2020/12/13 10:43:01;;;;;;;;;;;;;;;20.55;35.19;100936.84;5036442;28;880;-54
2020/12/13 10:45:26;;;;;;;;;;;;;;;20.51;34.29;100936.09;5036109;28;777;-57
2020/12/13 10:47:52;;;;;;;;;;;;;;;20.45;33.84;100937.72;5036543;28;1421;-57
2020/12/13 10:50:18;;;;;;;;;;;;;;;20.42;33.73;100941.34;5036411;28;1882;-55
2020/12/13 10:52:43;;;;;;;;;;;;;;;20.40;33.56;100947.38;5036091;28;904;-57
2020/12/13 10:55:08;;;;;;;;;;;;;;;20.37;33.36;100942.56;5036083;28;968;-56
2020/12/13 10:57:33;;;;;;;;;;;;;;;20.34;33.30;100939.78;5036103;28;1254;-54
2020/12/13 10:59:59;;;;;;;;;;;;;;;20.33;33.29;100944.63;5036075;28;865;-54
2020/12/13 11:02:24;;;;;;;;;;;;;;;20.30;33.29;100945.41;5036172;28;988;-54
2020/12/13 11:04:49;;;;;;;;;;;;;;;20.27;33.24;100946.22;5036867;28;884;-56
2020/12/13 11:07:15;;;;;;;;;;;;;;;20.27;33.29;100951.84;5035693;28;1270;-57
2020/12/13 11:09:40;;;;;;;;;;;;;;;20.26;33.14;100950.22;5036113;28;1955;-56
2020/12/13 11:12:05;;;;;;;;;;;;;;;20.24;33.45;100953.44;5036076;28;971;-56
2020/12/13 11:14:31;;;;;;;;;;;;;;;20.23;33.30;100951.06;5035847;28;856;-54
2020/12/13 11:16:56;;;;;;;;;;;;;;;20.23;33.26;100962.28;5035906;28;1275;-55
2020/12/13 11:19:21;;;;;;;;;;;;;;;20.23;33.23;100962.28;5035802;28;868;-57
2020/12/13 11:21:46;;;;;;;;;;;;;;;20.29;33.75;100957.84;5035824;28;986;-57
2020/12/13 11:24:12;;;;;;;;;;;;;;;20.35;34.31;100952.59;5035621;28;916;-57
2020/12/13 11:26:37;;;;;;;;;;;;;;;20.38;34.65;100961.00;5035397;28;1296;-55
2020/12/13 11:29:03;;;;;;;;;;;;;;;20.41;34.80;100968.59;5035490;28;1918;-55
2020/12/13 11:31:28;;;;;;;;;;;;;;;20.42;34.91;100969.41;5035561;28;828;-57
2020/12/13 11:33:53;;;;;;;;;;;;;;;20.42;34.85;100970.19;5034717;28;860;-55
2020/12/13 11:36:18;;;;;;;;;;;;;;;20.44;34.99;100964.19;5035177;28;1349;-57
2020/12/13 11:38:44;;;;;;;;;;;;;;;20.44;35.10;100962.16;5038889;28;1662;-57
2020/12/13 11:41:09;;;;;;;;;;;;;;;20.39;34.86;100954.19;5036424;28;1823;-56
2020/12/13 11:43:34;;;;;;;;;;;;;;;20.41;35.16;100954.56;5035688;28;1411;-57
2020/12/13 11:46:00;;;;;;;;;;;;;;;20.44;35.16;100964.19;5036115;28;1439;-55
2020/12/13 11:48:25;;;;;;;;;;;;;;;20.44;35.28;100956.56;5042441;28;1516;-57
2020/12/13 11:50:52;;;;;;;;;;;;;;;20.44;35.28;100953.75;5035017;28;1890;-55
2020/12/13 11:53:17;;;;;;;;;;;;;;;20.43;35.35;100952.13;5034925;28;1465;-57
2020/12/13 11:55:45;;;;;;;;;;;;;;;20.44;35.46;100953.75;5034792;28;1498;-55
2020/12/13 11:58:10;;;;;;;;;;;;;;;20.45;35.37;100951.72;5051700;28;1439;-58
2020/12/13 12:00:35;;;;;;;;;;;;;;;20.46;35.46;100961.75;5053681;28;1395;-55
2020/12/13 12:03:01;;;;;;;;;;;;;;;20.45;35.48;100949.75;5037524;28;1419;-57
2020/12/13 12:05:26;;;;;;;;;;;;;;;20.46;35.48;100956.16;5034555;28;1691;-55
2020/12/13 12:07:54;;;;;;;;;;;;;;;20.46;35.53;100956.94;5034814;28;1388;-57
2020/12/13 12:10:19;;;;;;;;;;;;;;;20.47;35.64;100952.16;5034802;28;1974;-56
2020/12/13 12:12:45;;;;;;;;;;;;;;;20.46;35.73;100945.72;5034374;28;1402;-57
2020/12/13 12:15:10;;;;;;;;;;;;;;;20.46;35.68;100945.72;5034023;28;1575;-56
2020/12/13 12:17:35;;;;;;;;;;;;;;;20.48;35.66;100950.91;5034580;28;1373;-57
2020/12/13 12:20:01;;;;;;;;;;;;;;;20.48;35.75;100957.31;5034728;28;1385;-55
2020/12/13 12:22:26;;;;;;;;;;;;;;;20.48;35.84;100953.72;5034428;28;1651;-57
2020/12/13 12:24:51;;;;;;;;;;;;;;;20.48;35.99;100956.53;5034629;28;1647;-54
2020/12/13 12:27:17;;;;;;;;;;;;;;;20.44;35.08;100964.19;5042783;28;1650;-57
2020/12/13 12:29:42;;;;;;;;;;;;;;;20.42;35.25;100952.56;5043866;28;1897;-57
2020/12/13 12:32:07;;;;;;;;;;;;;;;20.44;35.72;100959.34;5035711;28;1514;-57
2020/12/13 12:34:32;;;;;;;;;;;;;;;20.47;35.72;100952.16;5034219;28;1534;-57
2020/12/13 12:36:59;;;;;;;;;;;;;;;20.48;35.93;100962.13;5034639;28;1452;-56
2020/12/13 12:39:25;;;;;;;;;;;;;;;20.50;35.90;100968.13;5051152;28;1462;-57
2020/12/13 12:41:51;;;;;;;;;;;;;;;20.48;35.92;100962.94;5053490;28;1320;-57
2020/12/13 12:44:16;;;;;;;;;;;;;;;20.50;35.99;100976.53;5053362;28;1418;-57
2020/12/13 12:46:42;;;;;;;;;;;;;;;20.51;36.00;100977.38;5053705;28;1691;-57
2020/12/13 12:49:07;;;;;;;;;;;;;;;20.51;36.13;100978.16;5038080;28;1959;-57
2020/12/13 12:51:32;;;;;;;;;;;;;;;20.51;36.13;100980.16;5038029;28;1340;-57